Time,TemperatureF,DewpointF,PressureIn,WindDirection,WindDirectionDegrees,WindSpeedMPH,WindSpeedGustMPH,Humidity,HourlyPrecipIn,Conditions,Clouds,dailyrainin,SoftwareType,DateUTC
2014-11-26 00:03:00,16.0,15.0,-100.00,West,270,0.0,1.0,95,0.00,,,0.00,,2014-11-26 09:03:00,
2014-11-26 00:12:00,16.0,15.0,-100.00,West,270,0.0,1.0,95,0.00,,,0.00,,2014-11-26 09:12:00,
2014-11-26 00:22:00,16.0,15.0,-100.00,North,0,2.0,3.0,95,0.00,,,0.00,,2014-11-26 09:22:00,
2014-11-26 00:34:00,16.0,15.0,-100.00,North,0,2.0,3.0,95,0.00,,,0.00,,2014-11-26 09:34:00,
2014-11-26 00:43:00,16.0,15.0,-100.00,North,0,2.0,3.0,95,0.00,,,0.00,,2014-11-26 09:43:00,
2014-11-26 00:53:00,16.0,15.0,-100.00,North,0,2.0,3.0,95,0.00,,,0.00,,2014-11-26 09:53:00,
2014-11-26 01:03:00,16.0,15.0,-100.00,North,0,2.0,3.0,95,0.00,,,0.00,,2014-11-26 10:03:00,
2014-11-26 01:13:00,16.0,15.0,-100.00,North,0,2.0,3.0,95,0.00,,,0.00,,2014-11-26 10:13:00,
2014-11-26 01:23:00,16.0,15.0,-100.00,NNW,340,2.0,3.0,95,0.00,,,0.00,,2014-11-26 10:23:00,
2014-11-26 01:33:00,16.0,15.0,-100.00,NNW,340,2.0,3.0,95,0.00,,,0.00,,2014-11-26 10:33:00,
2014-11-26 01:43:00,16.0,15.0,-100.00,NNW,340,2.0,3.0,95,0.00,,,0.00,,2014-11-26 10:43:00,
2014-11-26 01:53:00,15.0,14.0,-100.00,East,90,0.0,2.0,95,0.00,,,0.00,,2014-11-26 10:53:00,
2014-11-26 02:02:00,15.0,14.0,-100.00,East,90,0.0,2.0,95,0.00,,,0.00,,2014-11-26 11:02:00,
2014-11-26 02:12:00,15.0,14.0,-100.00,East,90,0.0,2.0,95,0.00,,,0.00,,2014-11-26 11:12:00,
2014-11-26 02:22:00,14.0,13.0,-100.00,WSW,245,1.0,1.0,94,0.00,,,0.00,,2014-11-26 11:22:00,
2014-11-26 02:33:00,14.0,13.0,-100.00,WSW,245,1.0,1.0,94,0.00,,,0.00,,2014-11-26 11:33:00,
2014-11-26 02:42:00,14.0,13.0,-100.00,WSW,245,1.0,1.0,94,0.00,,,0.00,,2014-11-26 11:42:00,
2014-11-26 02:53:00,16.0,15.0,-100.00,North,355,3.0,4.0,94,0.00,,,0.00,,2014-11-26 11:53:00,
2014-11-26 03:02:00,16.0,15.0,-100.00,North,355,3.0,4.0,94,0.00,,,0.00,,2014-11-26 12:02:00,
2014-11-26 03:12:00,16.0,15.0,-100.00,North,355,3.0,4.0,94,0.00,,,0.00,,2014-11-26 12:12:00,
2014-11-26 03:22:00,16.0,15.0,-100.00,North,0,2.0,3.0,94,0.00,,,0.00,,2014-11-26 12:22:00,
2014-11-26 03:32:00,16.0,15.0,-100.00,North,0,2.0,3.0,94,0.00,,,0.00,,2014-11-26 12:32:00,
2014-11-26 03:42:00,16.0,15.0,-100.00,North,0,2.0,3.0,94,0.00,,,0.00,,2014-11-26 12:42:00,
2014-11-26 03:52:00,18.0,17.0,-100.00,North,0,4.0,6.0,95,0.00,,,0.00,,2014-11-26 12:52:00,
2014-11-26 04:02:00,18.0,17.0,-100.00,North,0,4.0,6.0,95,0.00,,,0.00,,2014-11-26 13:02:00,
2014-11-26 04:12:00,18.0,17.0,-100.00,North,0,4.0,6.0,95,0.00,,,0.00,,2014-11-26 13:12:00,
2014-11-26 04:22:00,20.0,18.0,-100.00,NNW,340,2.0,4.0,95,0.00,,,0.00,,2014-11-26 13:22:00,
2014-11-26 04:32:00,20.0,18.0,-100.00,NNW,340,2.0,4.0,95,0.00,,,0.00,,2014-11-26 13:32:00,
2014-11-26 04:42:00,20.0,18.0,-100.00,NNW,340,2.0,4.0,95,0.00,,,0.00,,2014-11-26 13:42:00,
2014-11-26 04:52:00,20.0,19.0,-100.00,North,0,3.0,6.0,95,0.00,,,0.00,,2014-11-26 13:52:00,
2014-11-26 05:02:00,20.0,19.0,-100.00,North,0,3.0,6.0,95,0.00,,,0.00,,2014-11-26 14:02:00,
2014-11-26 05:12:00,20.0,19.0,-100.00,North,0,3.0,6.0,95,0.00,,,0.00,,2014-11-26 14:12:00,
2014-11-26 05:22:00,21.0,20.0,-100.00,North,5,3.0,6.0,95,0.00,,,0.00,,2014-11-26 14:22:00,
2014-11-26 05:32:00,21.0,20.0,-100.00,North,5,3.0,6.0,95,0.00,,,0.00,,2014-11-26 14:32:00,
2014-11-26 05:42:00,21.0,20.0,-100.00,North,5,3.0,6.0,95,0.00,,,0.00,,2014-11-26 14:42:00,
2014-11-26 05:52:00,21.0,20.0,-100.00,NNE,30,2.0,5.0,95,0.00,,,0.00,,2014-11-26 14:52:00,
2014-11-26 06:03:00,21.0,20.0,-100.00,NNE,30,2.0,5.0,95,0.00,,,0.00,,2014-11-26 15:03:00,
2014-11-26 06:12:00,21.0,20.0,-100.00,NNE,30,2.0,5.0,95,0.00,,,0.00,,2014-11-26 15:12:00,
2014-11-26 06:22:00,20.0,18.0,-100.00,North,0,3.0,4.0,95,0.00,,,0.00,,2014-11-26 15:22:00,
2014-11-26 06:33:00,20.0,18.0,-100.00,North,0,3.0,4.0,95,0.00,,,0.00,,2014-11-26 15:33:00,
2014-11-26 06:44:00,20.0,18.0,-100.00,North,0,3.0,4.0,95,0.00,,,0.00,,2014-11-26 15:44:00,
2014-11-26 06:54:00,18.0,17.0,-100.00,South,190,0.0,0.0,94,0.00,,,0.00,,2014-11-26 15:54:00,
2014-11-26 07:03:00,18.0,17.0,-100.00,South,190,0.0,0.0,94,0.00,,,0.00,,2014-11-26 16:03:00,
2014-11-26 07:13:00,18.0,17.0,-100.00,South,190,0.0,0.0,94,0.00,,,0.00,,2014-11-26 16:13:00,
2014-11-26 07:24:00,18.0,17.0,-100.00,West,275,0.0,1.0,95,0.00,,,0.00,,2014-11-26 16:24:00,
2014-11-26 07:33:00,18.0,17.0,-100.00,West,275,0.0,1.0,95,0.00,,,0.00,,2014-11-26 16:33:00,
2014-11-26 07:44:00,18.0,17.0,-100.00,West,275,0.0,1.0,95,0.00,,,0.00,,2014-11-26 16:44:00,
2014-11-26 07:54:00,18.0,17.0,-100.00,SSW,210,0.0,2.0,95,0.00,,,0.00,,2014-11-26 16:54:00,
2014-11-26 08:03:00,18.0,17.0,-100.00,SSW,210,0.0,2.0,95,0.00,,,0.00,,2014-11-26 17:03:00,
2014-11-26 08:13:00,18.0,17.0,-100.00,SSW,210,0.0,2.0,95,0.00,,,0.00,,2014-11-26 17:13:00,
2014-11-26 08:22:00,19.0,18.0,-100.00,North,355,0.0,2.0,95,0.00,,,0.00,,2014-11-26 17:22:00,
2014-11-26 08:33:00,19.0,18.0,-100.00,North,355,0.0,2.0,95,0.00,,,0.00,,2014-11-26 17:33:00,
2014-11-26 08:43:00,19.0,18.0,-100.00,North,355,0.0,2.0,95,0.00,,,0.00,,2014-11-26 17:43:00,
2014-11-26 08:52:00,18.0,17.0,-100.00,North,355,2.0,2.0,95,0.00,,,0.00,,2014-11-26 17:52:00,
2014-11-26 09:02:00,18.0,17.0,-100.00,North,355,2.0,2.0,95,0.00,,,0.00,,2014-11-26 18:02:00,
2014-11-26 09:13:00,18.0,17.0,-100.00,North,355,2.0,2.0,95,0.00,,,0.00,,2014-11-26 18:13:00,
2014-11-26 09:22:00,19.0,18.0,-100.00,NNE,25,1.0,3.0,94,0.00,,,0.00,,2014-11-26 18:22:00,
2014-11-26 09:33:00,19.0,18.0,-100.00,NNE,25,1.0,3.0,94,0.00,,,0.00,,2014-11-26 18:33:00,
2014-11-26 09:43:00,19.0,18.0,-100.00,NNE,25,1.0,3.0,94,0.00,,,0.00,,2014-11-26 18:43:00,
2014-11-26 09:53:00,19.0,18.0,-100.00,NNE,30,1.0,5.0,94,0.00,,,0.00,,2014-11-26 18:53:00,
2014-11-26 10:03:00,19.0,18.0,-100.00,NNE,30,1.0,5.0,94,0.00,,,0.00,,2014-11-26 19:03:00,
2014-11-26 10:12:00,19.0,18.0,-100.00,NNE,30,1.0,5.0,94,0.00,,,0.00,,2014-11-26 19:12:00,
2014-11-26 10:22:00,19.0,17.0,-100.00,East,80,1.0,5.0,94,0.00,,,0.00,,2014-11-26 19:22:00,
2014-11-26 10:32:00,19.0,17.0,-100.00,East,80,1.0,5.0,94,0.00,,,0.00,,2014-11-26 19:32:00,
2014-11-26 10:42:00,19.0,17.0,-100.00,East,80,1.0,5.0,94,0.00,,,0.00,,2014-11-26 19:42:00,
2014-11-26 10:52:00,19.0,18.0,-100.00,North,0,2.0,4.0,93,0.00,,,0.00,,2014-11-26 19:52:00,
2014-11-26 11:02:00,19.0,18.0,-100.00,North,0,2.0,4.0,93,0.00,,,0.00,,2014-11-26 20:02:00,
2014-11-26 11:12:00,19.0,18.0,-100.00,North,0,2.0,4.0,93,0.00,,,0.00,,2014-11-26 20:12:00,
2014-11-26 11:22:00,19.0,18.0,-100.00,North,10,5.0,7.0,92,0.00,,,0.00,,2014-11-26 20:22:00,
2014-11-26 11:32:00,19.0,18.0,-100.00,North,10,5.0,7.0,92,0.00,,,0.00,,2014-11-26 20:32:00,
2014-11-26 11:42:00,19.0,18.0,-100.00,North,10,5.0,7.0,92,0.00,,,0.00,,2014-11-26 20:42:00,
2014-11-26 11:52:00,19.0,18.0,-100.00,NE,55,4.0,7.0,92,0.00,,,0.00,,2014-11-26 20:52:00,
2014-11-26 12:03:00,19.0,18.0,-100.00,NE,55,4.0,7.0,92,0.00,,,0.00,,2014-11-26 21:03:00,
2014-11-26 12:12:00,19.0,18.0,-100.00,NE,55,4.0,7.0,92,0.00,,,0.00,,2014-11-26 21:12:00,
2014-11-26 12:22:00,19.0,17.0,-100.00,NE,40,5.0,9.0,92,0.00,,,0.00,,2014-11-26 21:22:00,
2014-11-26 12:33:00,19.0,17.0,-100.00,NE,40,5.0,9.0,92,0.00,,,0.00,,2014-11-26 21:33:00,
2014-11-26 12:45:00,19.0,17.0,-100.00,NE,40,5.0,9.0,92,0.00,,,0.00,,2014-11-26 21:45:00,
2014-11-26 12:53:00,19.0,17.0,-100.00,NE,45,7.0,10.0,91,0.00,,,0.00,,2014-11-26 21:53:00,
2014-11-26 13:03:00,19.0,17.0,-100.00,NE,45,7.0,10.0,91,0.00,,,0.00,,2014-11-26 22:03:00,
2014-11-26 13:13:00,19.0,17.0,-100.00,NE,45,7.0,10.0,91,0.00,,,0.00,,2014-11-26 22:13:00,
2014-11-26 13:23:00,19.0,17.0,-100.00,NNE,25,7.0,9.0,91,0.00,,,0.00,,2014-11-26 22:23:00,
2014-11-26 13:34:00,19.0,17.0,-100.00,NNE,25,7.0,9.0,91,0.00,,,0.00,,2014-11-26 22:34:00,
2014-11-26 13:43:00,19.0,17.0,-100.00,NNE,25,7.0,9.0,91,0.00,,,0.00,,2014-11-26 22:43:00,
2014-11-26 13:53:00,19.0,17.0,-100.00,North,5,7.0,11.0,90,0.00,,,0.00,,2014-11-26 22:53:00,
2014-11-26 14:02:00,19.0,17.0,-100.00,North,5,7.0,11.0,90,0.00,,,0.00,,2014-11-26 23:02:00,
2014-11-26 14:12:00,19.0,17.0,-100.00,North,5,7.0,11.0,90,0.00,,,0.00,,2014-11-26 23:12:00,
2014-11-26 14:22:00,19.0,17.0,-100.00,NNE,20,7.0,9.0,88,0.00,,,0.00,,2014-11-26 23:22:00,
2014-11-26 14:33:00,19.0,17.0,-100.00,NNE,20,7.0,9.0,88,0.00,,,0.00,,2014-11-26 23:33:00,